Time;durP1;ratioP1;P1;durP2;ratioP2;P2;SDS_P1;SDS_P2;PMS_P1;PMS_P2;Temp;Humidity;BMP_temperature;BMP_pressure;BME280_temperature;BME280_humidity;BME280_pressure;Samples;Min_cycle;Max_cycle;Signal;HPM_P1;HPM_P2
2022/10/31 00:01:18;;;;;;;25.80;17.85;;;;;;;;;;5026272;28;20050;-84
2022/10/31 00:03:43;;;;;;;29.15;15.50;;;;;;;13.65;100.00;68284.47;5013090;28;20034;-82
2022/10/31 00:06:09;;;;;;;25.98;16.50;;;;;;;13.62;100.00;68281.06;5012678;28;20061;-82
2022/10/31 00:08:34;;;;;;;28.90;17.48;;;;;;;13.58;100.00;68282.44;5026762;28;20057;-83
2022/10/31 00:10:59;;;;;;;30.13;18.05;;;;;;;13.50;100.00;68267.97;5018849;28;20168;-82
2022/10/31 00:13:25;;;;;;;28.83;17.67;;;;;;;13.45;100.00;68262.28;5023960;28;20418;-83
2022/10/31 00:15:50;;;;;;;34.05;17.98;;;;;;;13.38;100.00;68259.66;5015913;28;20049;-83
2022/10/31 00:18:15;;;;;;;27.17;17.40;;;;;;;;;;5031066;28;20049;-83
2022/10/31 00:20:41;;;;;;;30.57;18.63;;;;;;;;;;5023904;28;20045;-84
2022/10/31 00:23:06;;;;;;;27.42;18.05;;;;;;;;;;5027032;28;20311;-82
2022/10/31 00:25:36;;;;;;;27.45;18.35;;;;;;;;;;5029954;28;20129;-83
2022/10/31 00:28:03;;;;;;;31.10;19.10;;;;;;;13.07;100.00;68220.19;5026964;28;20050;-82
2022/10/31 00:30:28;;;;;;;32.55;19.83;;;;;;;13.09;100.00;68228.38;5034585;28;20049;-83
2022/10/31 00:32:53;;;;;;;33.50;21.85;;;;;;;13.08;100.00;68221.31;5029451;28;20418;-83
2022/10/31 00:35:19;;;;;;;34.35;21.58;;;;;;;13.10;100.00;68223.59;5023326;28;20083;-82
2022/10/31 00:37:44;;;;;;;33.83;20.52;;;;;;;;;;5020511;28;20066;-82
2022/10/31 00:40:10;;;;;;;35.70;21.42;;;;;;;12.99;100.00;68217.00;5015093;28;20041;-82
2022/10/31 00:42:36;;;;;;;30.48;19.50;;;;;;;12.95;100.00;68206.56;5027781;28;20042;-84
2022/10/31 00:45:01;;;;;;;31.65;20.75;;;;;;;13.00;100.00;68212.22;5015683;28;20038;-83
2022/10/31 00:47:26;;;;;;;32.50;21.02;;;;;;;;;;5024483;28;20057;-82
2022/10/31 00:49:51;;;;;;;36.33;20.33;;;;;;;;;;5013834;28;20076;-82
2022/10/31 00:52:16;;;;;;;32.30;19.50;;;;;;;;;;5026366;28;20277;-82
2022/10/31 00:54:42;;;;;;;31.50;17.37;;;;;;;;;;5026430;28;20326;-84
2022/10/31 00:57:07;;;;;;;33.97;20.73;;;;;;;;;;5018150;28;20278;-82
2022/10/31 00:59:32;;;;;;;26.60;17.93;;;;;;;13.09;100.00;68219.81;5032663;28;20367;-84
2022/10/31 01:01:57;;;;;;;30.33;19.10;;;;;;;;;;5015543;28;20304;-82
2022/10/31 01:04:23;;;;;;;29.13;17.13;;;;;;;13.10;100.00;68223.59;5024703;28;20053;-83
2022/10/31 01:06:48;;;;;;;29.90;19.50;;;;;;;13.11;100.00;68230.06;5032626;28;20784;-84
2022/10/31 01:09:13;;;;;;;32.17;17.42;;;;;;;13.11;100.00;68222.06;5014977;28;20103;-82
2022/10/31 01:11:39;;;;;;;28.35;17.73;;;;;;;13.08;100.00;68226.66;5014749;28;20050;-84
2022/10/31 01:14:04;;;;;;;27.50;16.25;;;;;;;13.10;100.00;68220.94;5032030;28;20049;-82
2022/10/31 01:16:29;;;;;;;26.38;15.90;;;;;;;13.10;100.00;68224.16;5023978;28;20734;-82
2022/10/31 01:18:55;;;;;;;27.40;15.95;;;;;;;13.08;100.00;68221.88;5029891;28;20041;-83
2022/10/31 01:21:24;;;;;;;31.08;16.45;;;;;;;13.13;100.00;68223.78;5033218;28;20041;-82
2022/10/31 01:23:49;;;;;;;25.23;15.68;;;;;;;;;;5028731;28;20041;-83
2022/10/31 01:26:19;;;;;;;27.92;16.55;;;;;;;13.08;100.00;68221.88;5019824;28;20042;-83
2022/10/31 01:28:49;;;;;;;23.25;15.73;;;;;;;;;;5030708;28;20046;-84
2022/10/31 01:31:15;;;;;;;25.10;16.08;;;;;;;;;;5033464;28;20050;-82
2022/10/31 01:33:40;;;;;;;26.15;15.68;;;;;;;;;;5031253;28;20654;-82
2022/10/31 01:36:18;;;;;;;26.05;15.60;;;;;;;12.82;100.00;68197.69;5022846;28;20048;-83
2022/10/31 01:38:44;;;;;;;25.35;18.35;;;;;;;12.71;100.00;68185.72;5032986;28;20044;-82
2022/10/31 01:41:12;;;;;;;25.70;15.73;;;;;;;12.59;100.00;68166.75;5027495;28;20136;-83
2022/10/31 01:43:49;;;;;;;24.50;16.55;;;;;;;12.46;100.00;68149.31;5033565;28;20072;-82
2022/10/31 01:46:20;;;;;;;25.40;17.15;;;;;;;12.35;100.00;68145.97;5030139;28;20154;-85
2022/10/31 01:48:46;;;;;;;25.33;17.67;;;;;;;12.32;100.00;68141.97;5028790;28;20041;-82
2022/10/31 01:51:14;;;;;;;31.77;19.27;;;;;;;12.26;100.00;68135.72;5025793;28;20061;-82
2022/10/31 01:53:40;;;;;;;29.50;17.85;;;;;;;;;;5032049;28;20037;-82
2022/10/31 01:56:07;;;;;;;32.05;18.45;;;;;;;12.17;100.00;68117.50;5020221;28;20125;-83
2022/10/31 01:58:32;;;;;;;31.33;20.00;;;;;;;12.12;100.00;68114.50;5030702;28;20063;-82
2022/10/31 02:01:01;;;;;;;32.15;20.33;;;;;;;12.03;100.00;68104.28;5030311;28;20116;-82
2022/10/31 02:03:28;;;;;;;31.95;19.63;;;;;;;12.03;100.00;68109.59;5023986;28;20040;-83
2022/10/31 02:05:55;;;;;;;36.47;21.02;;;;;;;12.01;100.00;68102.00;5026072;28;20209;-83
2022/10/31 02:08:29;;;;;;;31.42;18.90;;;;;;;11.97;100.00;68103.34;5020017;28;20118;-82
2022/10/31 02:10:57;;;;;;;39.78;21.95;;;;;;;11.94;100.00;68094.63;5020933;28;20030;-82
2022/10/31 02:13:24;;;;;;;33.60;22.00;;;;;;;11.93;100.00;68102.03;5024936;28;20084;-82
2022/10/31 02:15:53;;;;;;;38.00;21.95;;;;;;;11.92;100.00;68100.34;5021449;28;20037;-82
2022/10/31 02:18:20;;;;;;;35.95;21.70;;;;;;;;;;5021133;28;20072;-83
2022/10/31 02:21:03;;;;;;;31.70;20.25;;;;;;;11.82;100.00;68078.84;5018742;28;20044;-82
2022/10/31 02:23:34;;;;;;;35.78;21.40;;;;;;;11.80;100.00;68084.03;5040866;28;20038;-83
2022/10/31 02:26:09;;;;;;;33.78;21.17;;;;;;;11.71;100.00;68069.03;5022093;28;20037;-82
2022/10/31 02:28:52;;;;;;;32.38;20.85;;;;;;;11.69;100.00;68067.31;5023723;28;20049;-82
2022/10/31 02:31:29;;;;;;;29.90;19.98;;;;;;;;;;5014299;28;20141;-82
2022/10/31 02:34:07;;;;;;;33.42;21.13;;;;;;;11.47;100.00;68048.22;5024787;28;20095;-84
2022/10/31 02:36:43;;;;;;;34.47;20.45;;;;;;;11.43;100.00;68038.34;5030166;28;20141;-82
2022/10/31 02:39:17;;;;;;;36.30;22.98;;;;;;;11.39;100.00;68033.25;5022841;28;20104;-82
2022/10/31 02:41:52;;;;;;;35.30;22.30;;;;;;;11.38;100.00;68032.69;5018254;28;20057;-82
2022/10/31 02:44:17;;;;;;;35.25;23.30;;;;;;;;;;5023255;28;20132;-84
2022/10/31 02:46:42;;;;;;;37.53;23.93;;;;;;;;;;5034175;28;20176;-82
2022/10/31 02:49:12;;;;;;;37.63;23.63;;;;;;;;;;5033835;28;20713;-84
2022/10/31 02:51:38;;;;;;;39.83;21.88;;;;;;;;;;5032204;28;20769;-82
2022/10/31 02:54:03;;;;;;;34.88;20.90;;;;;;;11.38;100.00;68038.00;5035924;28;20100;-84
2022/10/31 02:56:29;;;;;;;32.60;21.20;;;;;;;11.35;100.00;68036.69;5036274;28;20129;-82
2022/10/31 02:59:00;;;;;;;36.08;21.38;;;;;;;11.32;100.00;68033.31;5026810;28;20453;-83
2022/10/31 03:01:50;;;;;;;36.80;21.98;;;;;;;11.28;100.00;68027.22;5036954;28;20066;-82
2022/10/31 03:05:00;;;;;;;37.60;23.48;;;;;;;11.28;100.00;68021.91;5036108;28;20097;-82
2022/10/31 03:07:54;;;;;;;39.30;22.95;;;;;;;11.32;100.00;68031.19;5004869;28;20097;-82
2022/10/31 03:10:28;;;;;;;39.33;23.08;;;;;;;11.32;100.00;68025.88;4965399;28;20083;-82
2022/10/31 03:12:53;;;;;;;41.30;22.35;;;;;;;11.29;100.00;68023.03;5025341;28;20053;-82
2022/10/31 03:15:25;;;;;;;40.72;23.88;;;;;;;11.31;100.00;68030.06;5028623;28;20037;-83
2022/10/31 03:17:58;;;;;;;35.72;23.05;;;;;;;11.30;100.00;68029.47;5031865;28;20521;-82
2022/10/31 03:20:47;;;;;;;36.45;22.48;;;;;;;11.32;100.00;68025.88;5033578;28;20045;-83
2022/10/31 03:23:14;;;;;;;34.40;22.33;;;;;;;;;;5023676;28;20044;-84
2022/10/31 03:25:42;;;;;;;34.38;22.30;;;;;;;11.32;100.00;68025.88;5023736;28;20049;-82
2022/10/31 03:28:11;;;;;;;31.83;21.50;;;;;;;11.30;100.00;68028.91;5012435;28;20134;-83
2022/10/31 03:30:38;;;;;;;35.72;22.80;;;;;;;;;;5014398;28;20537;-82
2022/10/31 03:33:09;;;;;;;33.20;21.55;;;;;;;11.26;100.00;68019.63;5012850;28;20048;-84
2022/10/31 03:35:36;;;;;;;37.83;22.48;;;;;;;11.22;100.00;68014.50;5008960;28;20049;-82
2022/10/31 03:38:02;;;;;;;33.88;22.08;;;;;;;;;;5023377;28;20109;-86
2022/10/31 03:40:27;;;;;;;35.13;23.02;;;;;;;;;;5021229;28;20042;-83
2022/10/31 03:43:09;;;;;;;39.78;24.58;;;;;;;11.08;100.00;67999.19;5014102;28;20088;-82
2022/10/31 03:45:38;;;;;;;36.83;22.63;;;;;;;;;;5014784;28;20128;-82
2022/10/31 03:48:05;;;;;;;39.47;24.42;;;;;;;11.11;100.00;68002.59;5013354;28;20042;-84
2022/10/31 03:50:52;;;;;;;40.83;27.08;;;;;;;11.14;100.00;68010.78;5013093;28;20046;-84
2022/10/31 03:53:29;;;;;;;38.33;24.58;;;;;;;11.15;100.00;68006.56;5029967;28;20065;-81
2022/10/31 03:56:03;;;;;;;36.72;22.98;;;;;;;;;;5014451;28;20129;-82
2022/10/31 03:58:32;;;;;;;41.20;25.05;;;;;;;;;;5016269;28;20125;-83
2022/10/31 04:01:02;;;;;;;38.00;24.70;;;;;;;11.10;100.00;68006.22;5015408;28;20384;-82
2022/10/31 04:03:32;;;;;;;39.97;24.42;;;;;;;;;;5016262;28;20033;-81
2022/10/31 04:06:03;;;;;;;39.05;23.35;;;;;;;11.04;100.00;67994.66;5004694;28;20073;-82
2022/10/31 04:08:32;;;;;;;38.72;24.98;;;;;;;11.02;100.00;67992.38;5015984;28;20096;-82
2022/10/31 04:10:58;;;;;;;37.08;23.73;;;;;;;;;;5006482;28;20034;-82
2022/10/31 04:13:28;;;;;;;37.00;23.95;;;;;;;;;;5011399;28;20042;-83
2022/10/31 04:15:54;;;;;;;37.33;22.23;;;;;;;;;;5001563;28;20388;-84
2022/10/31 04:18:20;;;;;;;34.65;22.02;;;;;;;10.79;100.00;67972.19;5009478;28;20050;-84
2022/10/31 04:20:48;;;;;;;37.75;24.13;;;;;;;;;;5011859;28;20046;-83
2022/10/31 04:23:25;;;;;;;41.17;25.00;;;;;;;10.72;100.00;67964.22;5023217;28;20046;-83
2022/10/31 04:25:50;;;;;;;37.38;24.48;;;;;;;;;;5022908;28;20045;-83
2022/10/31 04:28:15;;;;;;;35.28;23.13;;;;;;;;;;5010162;28;20073;-84
2022/10/31 04:30:41;;;;;;;41.53;24.83;;;;;;;10.66;100.00;67952.66;5015094;28;20433;-82
2022/10/31 04:33:06;;;;;;;41.40;24.77;;;;;;;10.60;100.00;67946.41;5031859;28;20037;-82
2022/10/31 04:35:31;;;;;;;37.45;24.00;;;;;;;10.56;100.00;67941.88;5031284;28;20060;-85
2022/10/31 04:37:57;;;;;;;36.78;22.38;;;;;;;;;;5032358;28;20053;-81
2022/10/31 04:40:22;;;;;;;35.70;23.90;;;;;;;10.46;100.00;67935.84;5029103;28;20045;-84
2022/10/31 04:42:47;;;;;;;39.58;24.17;;;;;;;;;;5031398;28;20101;-81
2022/10/31 04:45:12;;;;;;;41.20;25.37;;;;;;;;;;5028439;28;20069;-84
2022/10/31 04:47:38;;;;;;;36.80;23.27;;;;;;;10.35;100.00;67918.59;5036487;28;20284;-83
2022/10/31 04:50:03;;;;;;;34.50;23.00;;;;;;;10.34;100.00;67922.22;5034233;28;20037;-82
2022/10/31 04:52:29;;;;;;;39.72;24.15;;;;;;;10.31;100.00;67918.84;5035925;28;20037;-82
2022/10/31 04:54:54;;;;;;;38.10;24.33;;;;;;;10.35;100.00;67918.03;5032529;28;20045;-84
2022/10/31 04:57:19;;;;;;;39.65;24.10;;;;;;;;;;5029267;28;20041;-82
2022/10/31 04:59:44;;;;;;;37.75;24.45;;;;;;;;;;5030374;28;20100;-81
2022/10/31 05:02:10;;;;;;;42.07;23.93;;;;;;;;;;5031839;28;20096;-81
2022/10/31 05:04:35;;;;;;;41.53;24.00;;;;;;;10.15;100.00;67901.22;5030507;28;20857;-82
2022/10/31 05:07:00;;;;;;;40.50;24.27;;;;;;;;;;5032527;28;20097;-83
2022/10/31 05:09:26;;;;;;;36.67;23.47;;;;;;;10.08;100.00;67888.53;5030081;28;20434;-82
2022/10/31 05:11:51;;;;;;;39.83;23.63;;;;;;;10.03;100.00;67882.28;5025972;28;20859;-82
2022/10/31 05:14:16;;;;;;;35.33;22.95;;;;;;;9.99;100.00;67883.09;5034764;28;20042;-82
2022/10/31 05:16:41;;;;;;;36.67;23.25;;;;;;;9.98;100.00;67881.94;5030017;28;20069;-82
2022/10/31 05:19:07;;;;;;;37.60;24.83;;;;;;;9.94;100.00;67881.19;5030103;28;20048;-84
2022/10/31 05:21:32;;;;;;;40.13;24.83;;;;;;;;;;5025453;28;20114;-82
2022/10/31 05:23:57;;;;;;;35.65;23.08;;;;;;;9.89;100.00;67866.97;5028646;28;20113;-83
2022/10/31 05:26:23;;;;;;;42.20;25.77;;;;;;;9.88;100.00;67871.72;5026597;28;20233;-82
2022/10/31 05:28:48;;;;;;;38.70;24.65;;;;;;;;;;5021845;28;20683;-82
2022/10/31 05:31:13;;;;;;;40.10;22.48;;;;;;;;;;5016722;28;20111;-83
2022/10/31 05:33:39;;;;;;;43.67;26.48;;;;;;;9.84;100.00;67861.88;5021317;28;20433;-85
2022/10/31 05:36:04;;;;;;;40.30;25.73;;;;;;;9.80;100.00;67857.34;5019459;28;20097;-82
2022/10/31 05:38:30;;;;;;;42.97;25.65;;;;;;;9.80;100.00;67857.34;5016828;28;20052;-82
2022/10/31 05:40:59;;;;;;;37.63;24.48;;;;;;;;;;5016163;28;20455;-82
2022/10/31 05:43:25;;;;;;;39.53;26.27;;;;;;;9.85;100.00;67863.00;5023919;28;20042;-82
2022/10/31 05:45:53;;;;;;;42.25;23.23;;;;;;;;;;5026154;28;20053;-82
2022/10/31 05:48:19;;;;;;;41.63;24.88;;;;;;;;;;5013052;28;20038;-83
2022/10/31 05:50:44;;;;;;;41.78;25.17;;;;;;;;;;5020738;28;20375;-82
2022/10/31 05:53:10;;;;;;;33.50;23.63;;;;;;;9.68;100.00;67849.06;5021999;28;20763;-85
2022/10/31 05:55:35;;;;;;;37.50;26.58;;;;;;;;;;5020207;28;20506;-85
2022/10/31 05:58:00;;;;;;;37.03;23.70;;;;;;;;;;5014008;28;20037;-82
2022/10/31 06:00:26;;;;;;;37.35;24.00;;;;;;;9.70;100.00;67846.56;5026969;28;20042;-82
2022/10/31 06:03:03;;;;;;;36.33;23.90;;;;;;;9.66;100.00;67847.34;5030263;28;20042;-82
2022/10/31 06:05:28;;;;;;;33.85;22.80;;;;;;;;;;5042692;28;20041;-83
2022/10/31 06:07:54;;;;;;;37.38;24.38;;;;;;;;;;5031295;28;20056;-84
2022/10/31 06:10:20;;;;;;;41.65;26.60;;;;;;;;;;5031885;28;20041;-83
2022/10/31 06:12:46;;;;;;;31.42;22.23;;;;;;;9.59;100.00;67839.41;5030640;28;20703;-82
2022/10/31 06:15:11;;;;;;;38.35;25.52;;;;;;;9.57;100.00;67831.81;5027488;28;20044;-83
2022/10/31 06:17:37;;;;;;;34.92;23.30;;;;;;;9.58;100.00;67838.28;5025333;28;20522;-84
2022/10/31 06:20:03;;;;;;;38.65;24.45;;;;;;;;;;5013394;28;20034;-85
2022/10/31 06:22:28;;;;;;;37.85;25.90;;;;;;;9.54;100.00;67833.19;5021559;28;20038;-83
2022/10/31 06:24:54;;;;;;;38.33;25.08;;;;;;;9.56;100.00;67838.09;5033380;28;20046;-82
2022/10/31 06:27:19;;;;;;;33.97;23.08;;;;;;;9.49;100.00;67830.72;5033051;28;20049;-82
2022/10/31 06:29:45;;;;;;;40.13;27.23;;;;;;;9.50;100.00;67829.22;5025192;28;20673;-84
2022/10/31 06:32:12;;;;;;;40.90;26.45;;;;;;;9.45;100.00;67824.09;5032462;28;20038;-84
2022/10/31 06:34:37;;;;;;;39.00;25.88;;;;;;;9.45;100.00;67823.53;5027571;28;20041;-84
2022/10/31 06:37:03;;;;;;;36.40;25.27;;;;;;;9.46;100.00;67825.22;5028090;28;20048;-84
2022/10/31 06:39:28;;;;;;;40.95;26.13;;;;;;;9.51;100.00;67830.34;5029506;28;20047;-83
2022/10/31 06:41:53;;;;;;;40.38;26.42;;;;;;;;;;5033384;28;20064;-85
2022/10/31 06:44:19;;;;;;;46.60;27.15;;;;;;;9.45;100.00;67824.09;5027936;28;20095;-82
2022/10/31 06:46:47;;;;;;;36.13;24.42;;;;;;;9.43;100.00;67821.25;5035007;28;20046;-84
2022/10/31 06:49:12;;;;;;;47.03;28.52;;;;;;;9.42;100.00;67815.38;5034946;28;20045;-84
2022/10/31 06:51:37;;;;;;;42.35;26.48;;;;;;;;;;5034774;28;20048;-84
2022/10/31 06:54:03;;;;;;;38.33;26.17;;;;;;;9.46;100.00;67825.22;5016242;28;20030;-82
2022/10/31 06:56:28;;;;;;;50.63;29.23;;;;;;;9.47;100.00;67825.81;5034013;28;20045;-84
2022/10/31 06:58:53;;;;;;;46.47;28.70;;;;;;;;;;5033249;28;20029;-82
2022/10/31 07:01:19;;;;;;;46.80;28.73;;;;;;;;;;5028839;28;20096;-85
2022/10/31 07:03:44;;;;;;;42.67;28.23;;;;;;;;;;5031319;28;20041;-85
2022/10/31 07:06:09;;;;;;;42.78;28.63;;;;;;;9.46;100.00;67825.22;5035621;28;20741;-83
2022/10/31 07:08:34;;;;;;;49.88;27.65;;;;;;;;;;5034089;28;20477;-85
2022/10/31 07:11:00;;;;;;;48.33;27.60;;;;;;;9.51;100.00;67825.03;5020498;28;20049;-83
2022/10/31 07:13:25;;;;;;;41.20;27.50;;;;;;;9.51;100.00;67830.34;5028243;28;20033;-84
2022/10/31 07:15:53;;;;;;;42.83;26.80;;;;;;;9.53;100.00;67835.28;5028266;28;20438;-85
2022/10/31 07:18:18;;;;;;;41.65;26.50;;;;;;;;;;5039943;28;20475;-85
2022/10/31 07:20:44;;;;;;;41.50;26.58;;;;;;;;;;5040246;28;20071;-85
2022/10/31 07:23:10;;;;;;;43.17;26.58;;;;;;;;;;5042823;28;20046;-85
2022/10/31 07:25:35;;;;;;;45.13;27.88;;;;;;;9.50;100.00;67823.91;5042421;28;20037;-85
2022/10/31 07:28:01;;;;;;;46.38;27.48;;;;;;;9.50;100.00;67829.22;5040608;28;20040;-83
2022/10/31 07:30:26;;;;;;;47.05;26.77;;;;;;;9.48;100.00;67830.16;5039210;28;20140;-84
2022/10/31 07:32:51;;;;;;;41.67;27.00;;;;;;;9.47;100.00;67825.81;5033550;28;20443;-84
2022/10/31 07:35:22;;;;;;;48.10;29.30;;;;;;;9.45;100.00;67823.53;5018286;28;20092;-83
2022/10/31 07:37:48;;;;;;;46.65;28.75;;;;;;;9.50;100.00;67829.22;5025111;28;20047;-85
2022/10/31 07:40:14;;;;;;;47.25;29.05;;;;;;;9.51;100.00;67829.78;5022599;28;20045;-84
2022/10/31 07:42:42;;;;;;;41.40;28.10;;;;;;;9.54;100.00;67833.75;5027972;28;20053;-85
2022/10/31 07:45:10;;;;;;;43.88;28.25;;;;;;;9.54;100.00;67833.19;5030264;28;20587;-83
2022/10/31 07:47:47;;;;;;;47.95;28.98;;;;;;;9.62;100.00;67842.25;5024745;28;20049;-84
2022/10/31 07:50:15;;;;;;;44.40;27.73;;;;;;;9.63;100.00;67846.59;5033358;28;20624;-83
2022/10/31 07:52:41;;;;;;;52.00;29.42;;;;;;;9.68;100.00;67849.06;5032484;28;20041;-83
2022/10/31 07:55:07;;;;;;;44.70;28.33;;;;;;;9.70;100.00;67851.31;5033130;28;20092;-85
2022/10/31 07:57:33;;;;;;;46.45;30.60;;;;;;;9.76;100.00;67860.78;5032425;28;20061;-85
2022/10/31 07:59:58;;;;;;;45.22;29.98;;;;;;;;;;5031157;28;20064;-86
2022/10/31 08:02:24;;;;;;;53.08;32.45;;;;;;;9.82;100.00;67864.38;5025483;28;20046;-83
2022/10/31 08:04:50;;;;;;;52.53;33.72;;;;;;;9.93;100.00;67872.09;5033906;28;20041;-83
2022/10/31 08:07:15;;;;;;;57.60;35.70;;;;;;;10.06;100.00;67891.00;5035713;28;20068;-84
2022/10/31 08:09:41;;;;;;;63.63;38.30;;;;;;;10.13;100.00;67899.53;5029463;28;20037;-84
2022/10/31 08:12:06;;;;;;;53.00;34.55;;;;;;;10.22;100.00;67903.84;5023689;28;20041;-83
2022/10/31 08:14:31;;;;;;;57.13;35.75;;;;;;;10.35;100.00;67926.03;5032288;28;20176;-84
2022/10/31 08:16:57;;;;;;;55.80;35.22;;;;;;;10.39;100.00;67931.13;5029215;28;20033;-84
2022/10/31 08:19:22;;;;;;;60.53;40.05;;;;;;;10.51;100.00;67940.97;5034059;28;20450;-83
2022/10/31 08:21:52;;;;;;;65.13;40.13;;;;;;;10.70;100.00;67956.63;5034120;28;20037;-84
2022/10/31 08:24:18;;;;;;;68.30;38.78;;;;;;;10.88;100.00;67982.38;5031074;28;20067;-84
2022/10/31 08:26:44;;;;;;;66.57;41.03;;;;;;;10.99;100.00;67989.56;5027646;28;20503;-84
2022/10/31 08:29:09;;;;;;;65.63;40.45;;;;;;;;;;5030856;28;20380;-84
2022/10/31 08:31:34;;;;;;;68.78;39.58;;;;;;;11.19;100.00;68017.00;5031407;28;20037;-83
2022/10/31 08:33:59;;;;;;;65.10;40.58;;;;;;;;;;5017630;28;20069;-83
2022/10/31 08:36:25;;;;;;;72.68;39.72;;;;;;;11.48;100.00;68044.03;5030427;28;20085;-85
2022/10/31 08:38:50;;;;;;;68.47;40.25;;;;;;;11.62;100.00;68058.78;5014594;28;20041;-84
2022/10/31 08:41:16;;;;;;;73.82;39.45;;;;;;;11.75;100.00;68078.91;5017191;28;20037;-85
2022/10/31 08:43:41;;;;;;;66.97;38.55;;;;;;;11.89;100.00;68094.25;5025127;28;20045;-83
2022/10/31 08:46:06;;;;;;;65.28;40.13;;;;;;;11.98;100.00;68099.16;5031201;28;20049;-85
2022/10/31 08:48:32;;;;;;;61.08;37.33;;;;;;;;;;5027374;28;20049;-85
2022/10/31 08:50:58;;;;;;;62.05;37.22;;;;;;;;;;5029392;28;20048;-84
2022/10/31 08:53:24;;;;;;;64.45;38.33;;;;;;;12.36;100.00;68135.84;5033998;28;20095;-84
2022/10/31 08:55:49;;;;;;;65.03;37.40;;;;;;;12.44;100.00;68150.28;5030743;28;20042;-85
2022/10/31 08:58:17;;;;;;;57.35;38.17;;;;;;;12.58;100.00;68170.97;5033903;28;20041;-84
2022/10/31 09:00:44;;;;;;;53.85;34.30;;;;;;;12.65;100.00;68173.56;5017196;28;20037;-85
2022/10/31 09:03:15;;;;;;;52.03;31.50;;;;;;;12.79;100.00;68189.50;5019442;28;20071;-85
2022/10/31 09:05:41;;;;;;;45.80;30.35;;;;;;;12.91;100.00;68202.56;5027170;28;20120;-85
2022/10/31 09:08:07;;;;;;;44.33;27.77;;;;;;;;;;5032670;28;20068;-86
2022/10/31 09:10:33;;;;;;;40.58;26.67;;;;;;;;;;5034271;28;20103;-86
2022/10/31 09:13:06;;;;;;;40.45;25.05;;;;;;;13.26;100.00;68241.81;5032359;28;20095;-85
2022/10/31 09:15:33;;;;;;;35.72;22.48;;;;;;;13.43;100.00;68260.00;5032979;28;20037;-84
2022/10/31 09:17:58;;;;;;;33.88;20.35;;;;;;;13.58;100.00;68277.09;5029848;28;20509;-85
2022/10/31 09:20:24;;;;;;;30.88;19.83;;;;;;;13.70;100.00;68288.06;5031082;28;20037;-85
2022/10/31 09:23:00;;;;;;;27.42;19.17;;;;;;;13.89;100.00;68311.19;5026336;28;20095;-85
2022/10/31 09:25:25;;;;;;;26.85;16.70;;;;;;;;;;5028882;28;20034;-85
2022/10/31 09:27:51;;;;;;;28.42;16.65;;;;;;;;;;5030397;28;20057;-85
2022/10/31 09:30:16;;;;;;;20.73;14.52;;;;;;;14.27;100.00;68351.22;5031280;28;20041;-85
2022/10/31 09:32:41;;;;;;;19.70;13.65;;;;;;;;;;5031242;28;20053;-85
2022/10/31 09:35:07;;;;;;;19.98;12.73;;;;;;;14.50;100.00;68378.91;5017330;28;20057;-85
2022/10/31 09:37:33;;;;;;;18.95;12.50;;;;;;;14.61;100.00;68386.66;5026213;28;20045;-86
2022/10/31 09:39:58;;;;;;;21.20;11.55;;;;;;;;;;5020242;28;20652;-85
2022/10/31 09:42:55;;;;;;;14.83;9.20;;;;;;;14.71;100.00;68407.66;5022288;28;20140;-85
2022/10/31 09:45:44;;;;;;;16.52;10.07;;;;;;;14.69;100.00;68400.00;5022048;28;20283;-85
2022/10/31 09:48:27;;;;;;;;;;;;;;;14.82;100.00;68415.38;5022214;28;20437;-85
2022/10/31 09:51:04;;;;;;;12.80;8.02;;;;;;;14.78;99.13;68410.81;5028053;28;19924;-84
2022/10/31 09:53:37;;;;;;;8.65;6.43;;;;;;;14.89;98.35;68422.78;5036927;28;20577;-85
2022/10/31 09:56:08;;;;;;;9.32;6.13;;;;;;;15.04;96.40;68437.16;5031053;28;20049;-85
2022/10/31 09:58:50;;;;;;;9.65;6.00;;;;;;;15.15;95.34;68449.13;5018055;28;20033;-85
2022/10/31 10:01:45;;;;;;;8.55;5.80;;;;;;;15.23;94.68;68460.34;5027927;28;20764;-84
2022/10/31 10:04:13;;;;;;;9.27;5.97;;;;;;;;;;5019353;28;20056;-86
2022/10/31 10:06:44;;;;;;;10.88;6.50;;;;;;;15.26;92.68;68464.34;5027353;28;20046;-85
2022/10/31 10:09:09;;;;;;;10.27;6.22;;;;;;;;;;5026055;28;20050;-84
2022/10/31 10:11:35;;;;;;;9.20;6.10;;;;;;;;;;5023050;28;20050;-84
2022/10/31 10:14:35;;;;;;;10.27;5.73;;;;;;;15.27;93.60;68462.22;5020893;28;20045;-84
2022/10/31 10:17:00;;;;;;;12.02;7.03;;;;;;;;;;5026995;28;20284;-86
2022/10/31 10:19:45;;;;;;;12.47;6.93;;;;;;;;;;5018886;28;20045;-83
2022/10/31 10:22:26;;;;;;;12.43;7.00;;;;;;;15.42;94.95;68482.00;5023613;28;20311;-83
2022/10/31 10:25:03;;;;;;;11.95;6.45;;;;;;;15.44;94.10;68481.03;5030188;28;20096;-84
2022/10/31 10:27:47;;;;;;;16.88;7.80;;;;;;;;;;5021363;28;20060;-82
2022/10/31 10:30:15;;;;;;;12.00;7.88;;;;;;;15.45;94.11;68485.41;5026728;28;20134;-84
2022/10/31 10:32:45;;;;;;;15.90;8.80;;;;;;;15.45;94.34;68490.78;5026392;28;20068;-84
2022/10/31 10:35:19;;;;;;;14.35;8.85;;;;;;;15.45;94.42;68485.41;5021318;28;20056;-84
2022/10/31 10:37:47;;;;;;;12.63;8.23;;;;;;;15.46;94.89;68491.91;5025686;28;20068;-83
2022/10/31 10:40:22;;;;;;;15.23;8.70;;;;;;;15.50;94.72;68495.91;5019289;28;20383;-83
2022/10/31 10:43:30;;;;;;;12.38;7.80;;;;;;;15.52;94.66;68493.38;5026364;28;20041;-86
2022/10/31 10:49:11;;;;;;;13.07;8.45;;;;;;;15.56;94.59;68497.97;5030959;28;20052;-84
2022/10/31 10:51:49;;;;;;;14.35;8.30;;;;;;;15.61;94.11;68499.81;5039350;28;20091;-86
2022/10/31 10:54:46;;;;;;;13.82;8.95;;;;;;;15.67;94.75;68509.34;5032976;28;20049;-87
2022/10/31 10:57:23;;;;;;;12.68;7.57;;;;;;;;;;5036350;28;20072;-84
2022/10/31 10:59:50;;;;;;;14.45;8.27;;;;;;;15.76;94.87;68519.59;5041148;28;20056;-87
2022/10/31 11:02:24;;;;;;;14.07;7.95;;;;;;;15.82;94.86;68523.75;5030273;28;20478;-84
2022/10/31 11:04:53;;;;;;;17.17;9.27;;;;;;;;;;5026962;28;20038;-83
2022/10/31 11:07:19;;;;;;;19.27;10.18;;;;;;;15.93;95.51;68538.41;5021915;28;20034;-86
2022/10/31 11:09:44;;;;;;;19.40;12.00;;;;;;;15.98;95.93;68542.00;5035984;28;20049;-84
2022/10/31 11:12:24;;;;;;;20.25;11.50;;;;;;;16.01;96.63;68542.16;5032748;28;20061;-84
2022/10/31 11:14:59;;;;;;;17.50;10.57;;;;;;;16.05;96.35;68549.41;5034845;28;20037;-84
2022/10/31 11:17:34;;;;;;;20.10;13.07;;;;;;;16.10;96.67;68552.41;5040455;28;20042;-84
2022/10/31 11:20:04;;;;;;;21.80;12.70;;;;;;;;;;5042563;28;20037;-85
2022/10/31 11:22:30;;;;;;;21.35;12.63;;;;;;;16.13;96.94;68557.94;5029631;28;20548;-87
2022/10/31 11:24:55;;;;;;;22.05;13.25;;;;;;;;;;5025497;28;20041;-85
2022/10/31 11:27:23;;;;;;;24.10;13.40;;;;;;;16.16;96.98;68564.06;5033805;28;20069;-85
2022/10/31 11:29:49;;;;;;;24.98;14.35;;;;;;;;;;5039884;28;20310;-86
2022/10/31 11:32:23;;;;;;;22.25;13.48;;;;;;;16.20;97.86;68569.19;5034818;28;20041;-84
2022/10/31 11:34:53;;;;;;;27.98;15.07;;;;;;;16.24;97.45;68573.19;5028197;28;20041;-84
2022/10/31 11:37:24;;;;;;;27.95;15.88;;;;;;;16.25;98.01;68574.31;5029843;28;20048;-86
2022/10/31 11:40:00;;;;;;;24.23;15.85;;;;;;;16.26;97.81;68575.47;5033171;28;20053;-84
2022/10/31 11:42:37;;;;;;;27.00;16.15;;;;;;;16.29;97.99;68578.88;5019830;28;20033;-84
2022/10/31 11:45:13;;;;;;;27.30;15.90;;;;;;;16.32;98.04;68582.31;5031873;28;20040;-84
2022/10/31 11:47:43;;;;;;;25.55;16.08;;;;;;;16.33;97.65;68580.19;5033525;28;20129;-85
2022/10/31 11:50:11;;;;;;;32.00;16.00;;;;;;;16.35;98.09;68585.72;5026780;28;20045;-86
2022/10/31 11:52:40;;;;;;;25.27;15.63;;;;;;;16.43;98.65;68594.84;5032680;28;20056;-85
2022/10/31 11:55:31;;;;;;;29.98;17.33;;;;;;;16.47;98.56;68599.41;5027125;28;20292;-87
2022/10/31 11:57:57;;;;;;;31.83;14.77;;;;;;;16.57;98.68;68609.66;5022703;28;20040;-85
2022/10/31 12:00:27;;;;;;;25.95;16.30;;;;;;;;;;5033618;28;20038;-85
2022/10/31 12:03:10;;;;;;;28.55;16.55;;;;;;;16.66;97.57;68617.81;5039525;28;20045;-85
2022/10/31 12:05:39;;;;;;;28.88;15.90;;;;;;;16.67;98.01;68621.63;5032808;28;20038;-84
2022/10/31 12:08:06;;;;;;;29.80;16.25;;;;;;;16.66;98.13;68625.88;5028261;28;21162;-84
2022/10/31 12:10:37;;;;;;;27.00;16.30;;;;;;;;;;5033572;28;20056;-85
2022/10/31 12:13:02;;;;;;;29.67;16.75;;;;;;;;;;5032578;28;20101;-87